sensor_id;sensor_type;location;lat;lon;timestamp;P1;durP1;ratioP1;P2;durP2;ratioP2
57217;SDS011;43078;52.972;6.482;2023-08-21T00:01:18;3.60;;;1.30;;
57217;SDS011;43078;52.972;6.482;2023-08-21T00:03:44;4.95;;;1.33;;
57217;SDS011;43078;52.972;6.482;2023-08-21T00:06:10;2.60;;;1.10;;
57217;SDS011;43078;52.972;6.482;2023-08-21T00:08:36;6.10;;;1.45;;
57217;SDS011;43078;52.972;6.482;2023-08-21T00:11:01;4.15;;;1.33;;
57217;SDS011;43078;52.972;6.482;2023-08-21T00:13:27;3.78;;;1.20;;
57217;SDS011;43078;52.972;6.482;2023-08-21T00:15:52;3.00;;;1.20;;
57217;SDS011;43078;52.972;6.482;2023-08-21T00:18:20;3.40;;;1.30;;
57217;SDS011;43078;52.972;6.482;2023-08-21T00:20:46;3.95;;;1.38;;
57217;SDS011;43078;52.972;6.482;2023-08-21T00:23:11;2.95;;;1.10;;
57217;SDS011;43078;52.972;6.482;2023-08-21T00:25:37;3.92;;;1.30;;
57217;SDS011;43078;52.972;6.482;2023-08-21T00:28:03;4.20;;;1.38;;
57217;SDS011;43078;52.972;6.482;2023-08-21T00:30:29;4.85;;;1.30;;
57217;SDS011;43078;52.972;6.482;2023-08-21T00:32:54;3.53;;;1.15;;
57217;SDS011;43078;52.972;6.482;2023-08-21T00:35:20;3.70;;;1.27;;
57217;SDS011;43078;52.972;6.482;2023-08-21T00:37:45;3.13;;;1.10;;
57217;SDS011;43078;52.972;6.482;2023-08-21T00:40:12;3.40;;;1.10;;
57217;SDS011;43078;52.972;6.482;2023-08-21T00:42:38;3.00;;;1.05;;
57217;SDS011;43078;52.972;6.482;2023-08-21T00:45:03;3.95;;;1.30;;
57217;SDS011;43078;52.972;6.482;2023-08-21T00:47:30;3.70;;;1.02;;
57217;SDS011;43078;52.972;6.482;2023-08-21T00:49:56;3.03;;;1.00;;
57217;SDS011;43078;52.972;6.482;2023-08-21T00:52:21;2.40;;;0.82;;
57217;SDS011;43078;52.972;6.482;2023-08-21T00:54:47;4.10;;;1.33;;
57217;SDS011;43078;52.972;6.482;2023-08-21T00:57:15;4.07;;;1.02;;
57217;SDS011;43078;52.972;6.482;2023-08-21T00:59:40;2.83;;;1.10;;
57217;SDS011;43078;52.972;6.482;2023-08-21T01:02:09;2.30;;;0.77;;
57217;SDS011;43078;52.972;6.482;2023-08-21T01:04:38;3.95;;;1.10;;
57217;SDS011;43078;52.972;6.482;2023-08-21T01:07:05;4.13;;;1.00;;
57217;SDS011;43078;52.972;6.482;2023-08-21T01:09:54;2.42;;;0.90;;
57217;SDS011;43078;52.972;6.482;2023-08-21T01:12:41;2.55;;;1.10;;
57217;SDS011;43078;52.972;6.482;2023-08-21T01:15:21;2.53;;;0.90;;
57217;SDS011;43078;52.972;6.482;2023-08-21T01:17:48;2.63;;;0.90;;
57217;SDS011;43078;52.972;6.482;2023-08-21T01:20:15;2.95;;;1.10;;
57217;SDS011;43078;52.972;6.482;2023-08-21T01:22:41;2.67;;;1.10;;
57217;SDS011;43078;52.972;6.482;2023-08-21T01:25:11;3.30;;;1.00;;
57217;SDS011;43078;52.972;6.482;2023-08-21T01:27:40;2.95;;;1.00;;
57217;SDS011;43078;52.972;6.482;2023-08-21T01:30:08;2.55;;;1.00;;
57217;SDS011;43078;52.972;6.482;2023-08-21T01:35:25;3.95;;;1.00;;
57217;SDS011;43078;52.972;6.482;2023-08-21T01:37:52;2.45;;;0.80;;
57217;SDS011;43078;52.972;6.482;2023-08-21T01:40:22;2.22;;;0.90;;
57217;SDS011;43078;52.972;6.482;2023-08-21T01:42:48;2.30;;;0.95;;
57217;SDS011;43078;52.972;6.482;2023-08-21T01:45:14;4.07;;;0.80;;
57217;SDS011;43078;52.972;6.482;2023-08-21T01:47:40;3.35;;;0.90;;
57217;SDS011;43078;52.972;6.482;2023-08-21T01:50:06;3.15;;;0.82;;
57217;SDS011;43078;52.972;6.482;2023-08-21T01:52:32;2.00;;;0.90;;
57217;SDS011;43078;52.972;6.482;2023-08-21T01:54:57;1.52;;;0.70;;
57217;SDS011;43078;52.972;6.482;2023-08-21T01:57:23;2.10;;;0.88;;
57217;SDS011;43078;52.972;6.482;2023-08-21T01:59:49;1.23;;;0.60;;
57217;SDS011;43078;52.972;6.482;2023-08-21T02:02:14;3.55;;;0.88;;
57217;SDS011;43078;52.972;6.482;2023-08-21T02:04:40;3.28;;;0.85;;
57217;SDS011;43078;52.972;6.482;2023-08-21T02:07:06;2.17;;;0.80;;
57217;SDS011;43078;52.972;6.482;2023-08-21T02:09:32;2.03;;;0.73;;
57217;SDS011;43078;52.972;6.482;2023-08-21T02:11:58;2.33;;;0.95;;
57217;SDS011;43078;52.972;6.482;2023-08-21T02:14:26;1.73;;;0.70;;
57217;SDS011;43078;52.972;6.482;2023-08-21T02:16:53;3.50;;;1.17;;
57217;SDS011;43078;52.972;6.482;2023-08-21T02:19:19;3.83;;;0.80;;
57217;SDS011;43078;52.972;6.482;2023-08-21T02:21:44;2.53;;;0.88;;
57217;SDS011;43078;52.972;6.482;2023-08-21T02:24:10;1.85;;;0.80;;
57217;SDS011;43078;52.972;6.482;2023-08-21T02:26:35;1.60;;;0.75;;
57217;SDS011;43078;52.972;6.482;2023-08-21T02:29:01;2.22;;;0.93;;
57217;SDS011;43078;52.972;6.482;2023-08-21T02:31:28;2.40;;;0.80;;
57217;SDS011;43078;52.972;6.482;2023-08-21T02:33:54;2.00;;;0.88;;
57217;SDS011;43078;52.972;6.482;2023-08-21T02:36:19;1.75;;;0.98;;
57217;SDS011;43078;52.972;6.482;2023-08-21T02:38:45;1.55;;;0.70;;
57217;SDS011;43078;52.972;6.482;2023-08-21T02:41:11;1.88;;;0.80;;
57217;SDS011;43078;52.972;6.482;2023-08-21T02:43:36;2.75;;;0.73;;
57217;SDS011;43078;52.972;6.482;2023-08-21T02:46:02;1.83;;;0.80;;
57217;SDS011;43078;52.972;6.482;2023-08-21T02:48:28;1.67;;;0.80;;
57217;SDS011;43078;52.972;6.482;2023-08-21T02:50:53;2.13;;;0.80;;
57217;SDS011;43078;52.972;6.482;2023-08-21T02:53:19;1.48;;;0.75;;
57217;SDS011;43078;52.972;6.482;2023-08-21T02:55:45;2.28;;;0.80;;
57217;SDS011;43078;52.972;6.482;2023-08-21T02:58:11;1.85;;;0.85;;
57217;SDS011;43078;52.972;6.482;2023-08-21T03:00:36;2.47;;;0.60;;
57217;SDS011;43078;52.972;6.482;2023-08-21T03:03:03;2.67;;;0.80;;
57217;SDS011;43078;52.972;6.482;2023-08-21T03:05:29;1.38;;;0.70;;
57217;SDS011;43078;52.972;6.482;2023-08-21T03:07:55;2.40;;;0.90;;
57217;SDS011;43078;52.972;6.482;2023-08-21T03:10:20;2.28;;;0.82;;
57217;SDS011;43078;52.972;6.482;2023-08-21T03:12:48;1.77;;;0.80;;
57217;SDS011;43078;52.972;6.482;2023-08-21T03:15:14;2.03;;;0.70;;
57217;SDS011;43078;52.972;6.482;2023-08-21T03:17:40;2.67;;;0.88;;
57217;SDS011;43078;52.972;6.482;2023-08-21T03:20:06;1.58;;;0.73;;
57217;SDS011;43078;52.972;6.482;2023-08-21T03:22:32;1.42;;;0.82;;
57217;SDS011;43078;52.972;6.482;2023-08-21T03:24:58;2.25;;;0.80;;
57217;SDS011;43078;52.972;6.482;2023-08-21T03:27:23;2.20;;;0.80;;
57217;SDS011;43078;52.972;6.482;2023-08-21T03:29:49;3.00;;;0.90;;
57217;SDS011;43078;52.972;6.482;2023-08-21T03:32:15;2.45;;;0.85;;
57217;SDS011;43078;52.972;6.482;2023-08-21T03:34:42;3.78;;;0.80;;
57217;SDS011;43078;52.972;6.482;2023-08-21T03:37:08;3.42;;;0.88;;
57217;SDS011;43078;52.972;6.482;2023-08-21T03:39:33;1.25;;;0.80;;
57217;SDS011;43078;52.972;6.482;2023-08-21T03:41:59;2.08;;;0.90;;
57217;SDS011;43078;52.972;6.482;2023-08-21T03:44:24;2.33;;;0.80;;
57217;SDS011;43078;52.972;6.482;2023-08-21T03:46:50;2.53;;;0.80;;
57217;SDS011;43078;52.972;6.482;2023-08-21T03:49:16;4.30;;;1.00;;
57217;SDS011;43078;52.972;6.482;2023-08-21T03:51:41;3.47;;;0.90;;
57217;SDS011;43078;52.972;6.482;2023-08-21T03:54:07;2.50;;;0.82;;
57217;SDS011;43078;52.972;6.482;2023-08-21T03:56:33;4.18;;;0.90;;
57217;SDS011;43078;52.972;6.482;2023-08-21T03:58:59;2.30;;;0.90;;
57217;SDS011;43078;52.972;6.482;2023-08-21T04:01:25;1.83;;;0.80;;
57217;SDS011;43078;52.972;6.482;2023-08-21T04:03:50;1.92;;;0.80;;
57217;SDS011;43078;52.972;6.482;2023-08-21T04:06:16;2.40;;;0.98;;
57217;SDS011;43078;52.972;6.482;2023-08-21T04:08:42;2.70;;;1.00;;
57217;SDS011;43078;52.972;6.482;2023-08-21T04:11:07;1.60;;;0.70;;
57217;SDS011;43078;52.972;6.482;2023-08-21T04:13:33;2.20;;;0.80;;
57217;SDS011;43078;52.972;6.482;2023-08-21T04:15:58;1.38;;;0.70;;
57217;SDS011;43078;52.972;6.482;2023-08-21T04:18:24;1.67;;;0.80;;
57217;SDS011;43078;52.972;6.482;2023-08-21T04:20:50;2.03;;;0.80;;
57217;SDS011;43078;52.972;6.482;2023-08-21T04:23:15;2.33;;;0.60;;
57217;SDS011;43078;52.972;6.482;2023-08-21T04:25:41;1.50;;;0.70;;
57217;SDS011;43078;52.972;6.482;2023-08-21T04:28:08;0.75;;;0.60;;
57217;SDS011;43078;52.972;6.482;2023-08-21T04:30:34;2.10;;;0.70;;
57217;SDS011;43078;52.972;6.482;2023-08-21T04:32:59;3.15;;;0.63;;
57217;SDS011;43078;52.972;6.482;2023-08-21T04:35:25;2.17;;;0.80;;
57217;SDS011;43078;52.972;6.482;2023-08-21T04:37:51;2.95;;;0.90;;
57217;SDS011;43078;52.972;6.482;2023-08-21T04:40:16;1.73;;;0.80;;
57217;SDS011;43078;52.972;6.482;2023-08-21T04:42:45;1.60;;;0.80;;
57217;SDS011;43078;52.972;6.482;2023-08-21T04:45:10;1.63;;;0.80;;
57217;SDS011;43078;52.972;6.482;2023-08-21T04:47:36;5.53;;;0.82;;
57217;SDS011;43078;52.972;6.482;2023-08-21T04:50:02;4.50;;;0.90;;
57217;SDS011;43078;52.972;6.482;2023-08-21T04:52:27;2.17;;;0.77;;
57217;SDS011;43078;52.972;6.482;2023-08-21T04:54:53;2.53;;;0.85;;
57217;SDS011;43078;52.972;6.482;2023-08-21T04:57:19;3.90;;;0.80;;
57217;SDS011;43078;52.972;6.482;2023-08-21T04:59:47;6.50;;;1.15;;
57217;SDS011;43078;52.972;6.482;2023-08-21T05:02:13;1.85;;;1.00;;
57217;SDS011;43078;52.972;6.482;2023-08-21T05:04:39;2.38;;;0.90;;
57217;SDS011;43078;52.972;6.482;2023-08-21T05:07:05;2.58;;;0.80;;
57217;SDS011;43078;52.972;6.482;2023-08-21T05:09:31;3.15;;;1.05;;
57217;SDS011;43078;52.972;6.482;2023-08-21T05:11:57;1.40;;;0.90;;
57217;SDS011;43078;52.972;6.482;2023-08-21T05:14:23;5.00;;;0.90;;
57217;SDS011;43078;52.972;6.482;2023-08-21T05:16:49;3.95;;;1.00;;
57217;SDS011;43078;52.972;6.482;2023-08-21T05:19:15;3.03;;;1.00;;
57217;SDS011;43078;52.972;6.482;2023-08-21T05:21:41;1.40;;;0.80;;
57217;SDS011;43078;52.972;6.482;2023-08-21T05:24:07;2.05;;;0.95;;
57217;SDS011;43078;52.972;6.482;2023-08-21T05:26:35;2.97;;;0.90;;
57217;SDS011;43078;52.972;6.482;2023-08-21T05:29:01;2.70;;;1.08;;
57217;SDS011;43078;52.972;6.482;2023-08-21T05:31:27;1.70;;;0.77;;
57217;SDS011;43078;52.972;6.482;2023-08-21T05:33:52;1.75;;;0.77;;
57217;SDS011;43078;52.972;6.482;2023-08-21T05:36:18;1.48;;;0.90;;
57217;SDS011;43078;52.972;6.482;2023-08-21T05:38:43;1.58;;;0.88;;
57217;SDS011;43078;52.972;6.482;2023-08-21T05:41:09;4.07;;;0.90;;
57217;SDS011;43078;52.972;6.482;2023-08-21T05:43:35;2.00;;;0.90;;
57217;SDS011;43078;52.972;6.482;2023-08-21T05:46:01;2.13;;;1.00;;
57217;SDS011;43078;52.972;6.482;2023-08-21T05:48:26;1.30;;;0.80;;
57217;SDS011;43078;52.972;6.482;2023-08-21T05:50:53;2.03;;;0.93;;
57217;SDS011;43078;52.972;6.482;2023-08-21T05:53:19;1.98;;;0.80;;
57217;SDS011;43078;52.972;6.482;2023-08-21T05:55:44;1.80;;;0.90;;
57217;SDS011;43078;52.972;6.482;2023-08-21T05:58:10;2.42;;;1.00;;
57217;SDS011;43078;52.972;6.482;2023-08-21T06:00:37;2.08;;;1.10;;
57217;SDS011;43078;52.972;6.482;2023-08-21T06:03:04;1.95;;;0.82;;
57217;SDS011;43078;52.972;6.482;2023-08-21T06:05:30;3.22;;;1.05;;
57217;SDS011;43078;52.972;6.482;2023-08-21T06:07:56;2.38;;;1.05;;
57217;SDS011;43078;52.972;6.482;2023-08-21T06:10:21;1.17;;;0.77;;
57217;SDS011;43078;52.972;6.482;2023-08-21T06:12:47;3.92;;;1.13;;
57217;SDS011;43078;52.972;6.482;2023-08-21T06:15:13;2.58;;;1.00;;
57217;SDS011;43078;52.972;6.482;2023-08-21T06:17:39;1.73;;;0.80;;
57217;SDS011;43078;52.972;6.482;2023-08-21T06:20:07;1.55;;;0.90;;
57217;SDS011;43078;52.972;6.482;2023-08-21T06:22:36;3.47;;;1.00;;
57217;SDS011;43078;52.972;6.482;2023-08-21T06:25:02;1.98;;;1.15;;
57217;SDS011;43078;52.972;6.482;2023-08-21T06:27:28;3.97;;;1.10;;
57217;SDS011;43078;52.972;6.482;2023-08-21T06:29:53;4.03;;;1.55;;
57217;SDS011;43078;52.972;6.482;2023-08-21T06:32:19;3.83;;;1.13;;
57217;SDS011;43078;52.972;6.482;2023-08-21T06:34:44;3.88;;;1.42;;
57217;SDS011;43078;52.972;6.482;2023-08-21T06:37:10;4.15;;;1.00;;
57217;SDS011;43078;52.972;6.482;2023-08-21T06:39:37;4.13;;;1.30;;
57217;SDS011;43078;52.972;6.482;2023-08-21T06:42:03;3.70;;;1.10;;
57217;SDS011;43078;52.972;6.482;2023-08-21T06:44:29;3.55;;;1.13;;
57217;SDS011;43078;52.972;6.482;2023-08-21T06:46:54;3.58;;;1.02;;
57217;SDS011;43078;52.972;6.482;2023-08-21T06:49:20;4.50;;;1.40;;
57217;SDS011;43078;52.972;6.482;2023-08-21T06:51:45;3.17;;;1.30;;
57217;SDS011;43078;52.972;6.482;2023-08-21T06:54:11;3.22;;;1.30;;
57217;SDS011;43078;52.972;6.482;2023-08-21T06:56:37;5.47;;;2.28;;
57217;SDS011;43078;52.972;6.482;2023-08-21T06:59:02;8.25;;;1.92;;
57217;SDS011;43078;52.972;6.482;2023-08-21T07:01:28;7.38;;;2.33;;
57217;SDS011;43078;52.972;6.482;2023-08-21T07:03:54;4.95;;;1.80;;
57217;SDS011;43078;52.972;6.482;2023-08-21T07:06:20;8.60;;;2.90;;
57217;SDS011;43078;52.972;6.482;2023-08-21T07:08:45;6.72;;;1.75;;
57217;SDS011;43078;52.972;6.482;2023-08-21T07:11:11;5.15;;;1.38;;
57217;SDS011;43078;52.972;6.482;2023-08-21T07:13:37;8.20;;;1.65;;
57217;SDS011;43078;52.972;6.482;2023-08-21T07:16:04;5.82;;;1.42;;
57217;SDS011;43078;52.972;6.482;2023-08-21T07:18:34;11.80;;;2.10;;
57217;SDS011;43078;52.972;6.482;2023-08-21T07:21:03;4.65;;;1.27;;
57217;SDS011;43078;52.972;6.482;2023-08-21T07:23:32;7.40;;;1.63;;
57217;SDS011;43078;52.972;6.482;2023-08-21T07:25:59;9.20;;;1.80;;
57217;SDS011;43078;52.972;6.482;2023-08-21T07:28:25;5.97;;;1.55;;
57217;SDS011;43078;52.972;6.482;2023-08-21T07:30:54;7.63;;;1.95;;
57217;SDS011;43078;52.972;6.482;2023-08-21T07:33:20;9.10;;;1.80;;
57217;SDS011;43078;52.972;6.482;2023-08-21T07:38:31;8.90;;;1.58;;
57217;SDS011;43078;52.972;6.482;2023-08-21T07:41:06;9.40;;;1.60;;
57217;SDS011;43078;52.972;6.482;2023-08-21T07:43:35;6.53;;;1.20;;
57217;SDS011;43078;52.972;6.482;2023-08-21T07:46:02;6.53;;;1.10;;
57217;SDS011;43078;52.972;6.482;2023-08-21T07:48:31;4.75;;;1.20;;
57217;SDS011;43078;52.972;6.482;2023-08-21T07:50:58;8.25;;;1.25;;
57217;SDS011;43078;52.972;6.482;2023-08-21T07:53:26;5.20;;;1.27;;
57217;SDS011;43078;52.972;6.482;2023-08-21T07:55:52;8.07;;;1.27;;
57217;SDS011;43078;52.972;6.482;2023-08-21T07:58:18;4.35;;;1.02;;
57217;SDS011;43078;52.972;6.482;2023-08-21T08:00:44;7.60;;;1.63;;
57217;SDS011;43078;52.972;6.482;2023-08-21T08:03:11;6.32;;;1.60;;
57217;SDS011;43078;52.972;6.482;2023-08-21T08:05:39;6.13;;;1.55;;
57217;SDS011;43078;52.972;6.482;2023-08-21T08:08:08;6.35;;;1.30;;
57217;SDS011;43078;52.972;6.482;2023-08-21T08:10:38;6.18;;;1.25;;
57217;SDS011;43078;52.972;6.482;2023-08-21T08:13:07;6.13;;;1.43;;
57217;SDS011;43078;52.972;6.482;2023-08-21T08:15:33;6.72;;;1.58;;
57217;SDS011;43078;52.972;6.482;2023-08-21T08:18:00;6.72;;;1.73;;
57217;SDS011;43078;52.972;6.482;2023-08-21T08:20:27;8.93;;;1.50;;
57217;SDS011;43078;52.972;6.482;2023-08-21T08:22:52;4.93;;;1.30;;
57217;SDS011;43078;52.972;6.482;2023-08-21T08:25:18;7.45;;;1.30;;
57217;SDS011;43078;52.972;6.482;2023-08-21T08:27:44;3.65;;;0.90;;
57217;SDS011;43078;52.972;6.482;2023-08-21T08:30:10;7.35;;;1.35;;
57217;SDS011;43078;52.972;6.482;2023-08-21T08:32:36;4.47;;;0.90;;
57217;SDS011;43078;52.972;6.482;2023-08-21T08:35:01;6.95;;;1.40;;
57217;SDS011;43078;52.972;6.482;2023-08-21T08:37:27;8.13;;;1.30;;
57217;SDS011;43078;52.972;6.482;2023-08-21T08:39:53;6.80;;;1.30;;
57217;SDS011;43078;52.972;6.482;2023-08-21T08:42:18;6.10;;;1.15;;
57217;SDS011;43078;52.972;6.482;2023-08-21T08:44:44;5.28;;;1.23;;
57217;SDS011;43078;52.972;6.482;2023-08-21T08:47:10;6.35;;;1.30;;
57217;SDS011;43078;52.972;6.482;2023-08-21T08:49:39;8.88;;;1.60;;
57217;SDS011;43078;52.972;6.482;2023-08-21T08:52:05;3.75;;;1.20;;
57217;SDS011;43078;52.972;6.482;2023-08-21T08:54:31;5.07;;;1.00;;
57217;SDS011;43078;52.972;6.482;2023-08-21T08:56:58;5.07;;;1.05;;
57217;SDS011;43078;52.972;6.482;2023-08-21T08:59:24;7.32;;;1.13;;
57217;SDS011;43078;52.972;6.482;2023-08-21T09:01:50;6.28;;;1.40;;
57217;SDS011;43078;52.972;6.482;2023-08-21T09:04:16;7.00;;;1.40;;
57217;SDS011;43078;52.972;6.482;2023-08-21T09:06:42;8.80;;;1.48;;
57217;SDS011;43078;52.972;6.482;2023-08-21T09:09:11;5.43;;;1.00;;
57217;SDS011;43078;52.972;6.482;2023-08-21T09:11:41;5.38;;;1.20;;
57217;SDS011;43078;52.972;6.482;2023-08-21T09:14:08;4.80;;;1.20;;
57217;SDS011;43078;52.972;6.482;2023-08-21T09:16:35;5.43;;;1.00;;
57217;SDS011;43078;52.972;6.482;2023-08-21T09:19:00;5.93;;;1.27;;
57217;SDS011;43078;52.972;6.482;2023-08-21T09:21:26;5.90;;;1.15;;
57217;SDS011;43078;52.972;6.482;2023-08-21T09:23:58;4.88;;;1.00;;
57217;SDS011;43078;52.972;6.482;2023-08-21T09:26:30;5.32;;;1.02;;
57217;SDS011;43078;52.972;6.482;2023-08-21T09:29:00;4.10;;;0.75;;
57217;SDS011;43078;52.972;6.482;2023-08-21T09:31:30;3.63;;;0.85;;
57217;SDS011;43078;52.972;6.482;2023-08-21T09:34:01;5.50;;;1.30;;
57217;SDS011;43078;52.972;6.482;2023-08-21T09:36:30;5.68;;;1.10;;
57217;SDS011;43078;52.972;6.482;2023-08-21T09:39:00;7.13;;;1.30;;
57217;SDS011;43078;52.972;6.482;2023-08-21T09:41:31;5.82;;;0.90;;
57217;SDS011;43078;52.972;6.482;2023-08-21T09:44:02;4.72;;;1.00;;
57217;SDS011;43078;52.972;6.482;2023-08-21T09:46:31;6.15;;;1.40;;
57217;SDS011;43078;52.972;6.482;2023-08-21T09:48:58;8.93;;;1.20;;
57217;SDS011;43078;52.972;6.482;2023-08-21T09:51:25;6.60;;;1.10;;
57217;SDS011;43078;52.972;6.482;2023-08-21T09:53:55;4.50;;;1.20;;
57217;SDS011;43078;52.972;6.482;2023-08-21T09:56:24;7.20;;;1.13;;
57217;SDS011;43078;52.972;6.482;2023-08-21T09:58:53;3.90;;;0.80;;
57217;SDS011;43078;52.972;6.482;2023-08-21T10:01:19;6.70;;;1.25;;
57217;SDS011;43078;52.972;6.482;2023-08-21T10:03:46;5.88;;;0.88;;
57217;SDS011;43078;52.972;6.482;2023-08-21T10:06:14;3.97;;;1.27;;
57217;SDS011;43078;52.972;6.482;2023-08-21T10:08:47;5.18;;;0.93;;
57217;SDS011;43078;52.972;6.482;2023-08-21T10:11:19;4.78;;;1.10;;
57217;SDS011;43078;52.972;6.482;2023-08-21T10:13:45;5.07;;;1.00;;
57217;SDS011;43078;52.972;6.482;2023-08-21T10:16:12;3.55;;;0.80;;
57217;SDS011;43078;52.972;6.482;2023-08-21T10:18:43;5.82;;;1.20;;
57217;SDS011;43078;52.972;6.482;2023-08-21T10:21:14;4.82;;;1.15;;
57217;SDS011;43078;52.972;6.482;2023-08-21T10:23:50;4.18;;;1.13;;
57217;SDS011;43078;52.972;6.482;2023-08-21T10:26:22;5.38;;;1.38;;
57217;SDS011;43078;52.972;6.482;2023-08-21T10:28:55;6.55;;;1.30;;
57217;SDS011;43078;52.972;6.482;2023-08-21T10:31:30;6.80;;;1.40;;
57217;SDS011;43078;52.972;6.482;2023-08-21T10:34:03;5.95;;;1.40;;
57217;SDS011;43078;52.972;6.482;2023-08-21T10:36:37;6.88;;;1.20;;
57217;SDS011;43078;52.972;6.482;2023-08-21T10:39:15;6.93;;;1.33;;
57217;SDS011;43078;52.972;6.482;2023-08-21T10:42:00;4.43;;;1.00;;
57217;SDS011;43078;52.972;6.482;2023-08-21T10:55:04;5.97;;;1.50;;
57217;SDS011;43078;52.972;6.482;2023-08-21T10:57:31;3.95;;;1.40;;
57217;SDS011;43078;52.972;6.482;2023-08-21T11:00:04;4.22;;;1.00;;
57217;SDS011;43078;52.972;6.482;2023-08-21T11:02:36;3.75;;;0.98;;
57217;SDS011;43078;52.972;6.482;2023-08-21T11:05:04;4.20;;;1.13;;
57217;SDS011;43078;52.972;6.482;2023-08-21T11:07:38;5.97;;;1.30;;
57217;SDS011;43078;52.972;6.482;2023-08-21T11:10:31;6.13;;;1.48;;
57217;SDS011;43078;52.972;6.482;2023-08-21T11:12:58;5.32;;;1.30;;
57217;SDS011;43078;52.972;6.482;2023-08-21T11:15:28;6.07;;;1.48;;
57217;SDS011;43078;52.972;6.482;2023-08-21T11:20:28;5.10;;;1.33;;
57217;SDS011;43078;52.972;6.482;2023-08-21T11:23:01;3.60;;;1.20;;
57217;SDS011;43078;52.972;6.482;2023-08-21T11:25:31;6.82;;;1.48;;
57217;SDS011;43078;52.972;6.482;2023-08-21T11:27:58;2.60;;;0.95;;
57217;SDS011;43078;52.972;6.482;2023-08-21T11:30:24;3.78;;;1.02;;
57217;SDS011;43078;52.972;6.482;2023-08-21T11:33:11;5.78;;;1.50;;
57217;SDS011;43078;52.972;6.482;2023-08-21T11:35:37;5.88;;;1.40;;
57217;SDS011;43078;52.972;6.482;2023-08-21T11:38:03;5.18;;;1.20;;
57217;SDS011;43078;52.972;6.482;2023-08-21T11:40:29;3.55;;;1.08;;
57217;SDS011;43078;52.972;6.482;2023-08-21T11:43:04;4.03;;;1.20;;
57217;SDS011;43078;52.972;6.482;2023-08-21T11:45:31;5.72;;;1.20;;
57217;SDS011;43078;52.972;6.482;2023-08-21T11:47:57;4.00;;;1.00;;
57217;SDS011;43078;52.972;6.482;2023-08-21T11:50:26;5.97;;;1.20;;
57217;SDS011;43078;52.972;6.482;2023-08-21T11:52:52;5.10;;;1.30;;
57217;SDS011;43078;52.972;6.482;2023-08-21T11:55:23;6.20;;;1.48;;
57217;SDS011;43078;52.972;6.482;2023-08-21T11:57:50;3.30;;;1.00;;
57217;SDS011;43078;52.972;6.482;2023-08-21T12:00:17;4.93;;;1.13;;
57217;SDS011;43078;52.972;6.482;2023-08-21T12:02:53;4.15;;;1.20;;
57217;SDS011;43078;52.972;6.482;2023-08-21T12:05:23;4.50;;;1.30;;
57217;SDS011;43078;52.972;6.482;2023-08-21T12:07:51;4.28;;;1.00;;
57217;SDS011;43078;52.972;6.482;2023-08-21T12:10:28;4.03;;;0.90;;
57217;SDS011;43078;52.972;6.482;2023-08-21T12:12:55;4.38;;;1.10;;
57217;SDS011;43078;52.972;6.482;2023-08-21T12:15:21;4.07;;;1.00;;
57217;SDS011;43078;52.972;6.482;2023-08-21T12:17:47;3.97;;;1.00;;
57217;SDS011;43078;52.972;6.482;2023-08-21T12:20:13;4.80;;;1.20;;
57217;SDS011;43078;52.972;6.482;2023-08-21T12:22:39;4.03;;;0.98;;
57217;SDS011;43078;52.972;6.482;2023-08-21T12:25:05;5.35;;;1.30;;
57217;SDS011;43078;52.972;6.482;2023-08-21T12:27:32;3.70;;;1.02;;
57217;SDS011;43078;52.972;6.482;2023-08-21T12:29:58;6.95;;;1.50;;
57217;SDS011;43078;52.972;6.482;2023-08-21T12:32:24;5.15;;;1.05;;
57217;SDS011;43078;52.972;6.482;2023-08-21T12:34:49;4.43;;;1.20;;
57217;SDS011;43078;52.972;6.482;2023-08-21T12:37:15;5.90;;;1.30;;
57217;SDS011;43078;52.972;6.482;2023-08-21T12:39:40;5.97;;;1.30;;
57217;SDS011;43078;52.972;6.482;2023-08-21T12:42:06;7.85;;;1.48;;
57217;SDS011;43078;52.972;6.482;2023-08-21T12:44:33;6.80;;;1.30;;
57217;SDS011;43078;52.972;6.482;2023-08-21T12:46:59;4.88;;;1.10;;
57217;SDS011;43078;52.972;6.482;2023-08-21T12:49:25;7.97;;;1.30;;
57217;SDS011;43078;52.972;6.482;2023-08-21T12:51:51;5.63;;;1.20;;
57217;SDS011;43078;52.972;6.482;2023-08-21T12:54:17;4.63;;;1.10;;
57217;SDS011;43078;52.972;6.482;2023-08-21T12:56:43;5.70;;;1.25;;
57217;SDS011;43078;52.972;6.482;2023-08-21T12:59:15;2.88;;;0.90;;
57217;SDS011;43078;52.972;6.482;2023-08-21T13:01:41;6.40;;;1.25;;
57217;SDS011;43078;52.972;6.482;2023-08-21T13:04:09;6.75;;;1.35;;
57217;SDS011;43078;52.972;6.482;2023-08-21T13:06:35;5.30;;;1.00;;
57217;SDS011;43078;52.972;6.482;2023-08-21T13:09:00;5.35;;;1.35;;
57217;SDS011;43078;52.972;6.482;2023-08-21T13:11:30;5.25;;;1.08;;
57217;SDS011;43078;52.972;6.482;2023-08-21T13:13:56;3.80;;;1.05;;
57217;SDS011;43078;52.972;6.482;2023-08-21T13:16:22;5.70;;;1.10;;
57217;SDS011;43078;52.972;6.482;2023-08-21T13:18:51;5.10;;;1.20;;
57217;SDS011;43078;52.972;6.482;2023-08-21T13:21:17;5.88;;;1.23;;
57217;SDS011;43078;52.972;6.482;2023-08-21T13:23:42;4.15;;;0.98;;
57217;SDS011;43078;52.972;6.482;2023-08-21T13:26:10;4.47;;;1.00;;
57217;SDS011;43078;52.972;6.482;2023-08-21T13:28:36;5.18;;;1.02;;
57217;SDS011;43078;52.972;6.482;2023-08-21T13:31:05;5.90;;;1.27;;
57217;SDS011;43078;52.972;6.482;2023-08-21T13:33:32;4.57;;;1.35;;
57217;SDS011;43078;52.972;6.482;2023-08-21T13:35:58;5.82;;;1.20;;
57217;SDS011;43078;52.972;6.482;2023-08-21T13:38:26;3.70;;;1.10;;
57217;SDS011;43078;52.972;6.482;2023-08-21T13:40:52;6.00;;;1.13;;
57217;SDS011;43078;52.972;6.482;2023-08-21T13:43:17;5.80;;;1.20;;
57217;SDS011;43078;52.972;6.482;2023-08-21T13:45:46;5.10;;;1.20;;
57217;SDS011;43078;52.972;6.482;2023-08-21T13:48:12;6.32;;;1.20;;
57217;SDS011;43078;52.972;6.482;2023-08-21T13:50:38;3.63;;;0.93;;
57217;SDS011;43078;52.972;6.482;2023-08-21T13:53:03;5.07;;;1.00;;
57217;SDS011;43078;52.972;6.482;2023-08-21T13:55:29;3.65;;;0.90;;
57217;SDS011;43078;52.972;6.482;2023-08-21T13:57:54;4.95;;;0.82;;
57217;SDS011;43078;52.972;6.482;2023-08-21T14:00:20;4.53;;;1.23;;
57217;SDS011;43078;52.972;6.482;2023-08-21T14:02:50;3.95;;;1.00;;
57217;SDS011;43078;52.972;6.482;2023-08-21T14:05:16;4.78;;;1.10;;
57217;SDS011;43078;52.972;6.482;2023-08-21T14:07:42;5.10;;;0.82;;
57217;SDS011;43078;52.972;6.482;2023-08-21T14:10:08;4.57;;;1.00;;
57217;SDS011;43078;52.972;6.482;2023-08-21T14:12:34;3.38;;;0.90;;
57217;SDS011;43078;52.972;6.482;2023-08-21T14:15:00;5.30;;;0.90;;
57217;SDS011;43078;52.972;6.482;2023-08-21T14:17:26;4.18;;;1.00;;
57217;SDS011;43078;52.972;6.482;2023-08-21T14:19:52;4.00;;;1.15;;
57217;SDS011;43078;52.972;6.482;2023-08-21T14:22:21;3.78;;;0.80;;
57217;SDS011;43078;52.972;6.482;2023-08-21T14:24:49;3.30;;;0.80;;
57217;SDS011;43078;52.972;6.482;2023-08-21T14:27:18;3.38;;;0.88;;
57217;SDS011;43078;52.972;6.482;2023-08-21T14:29:46;5.65;;;0.90;;
57217;SDS011;43078;52.972;6.482;2023-08-21T14:32:12;4.20;;;1.00;;
57217;SDS011;43078;52.972;6.482;2023-08-21T14:34:41;3.58;;;0.85;;
57217;SDS011;43078;52.972;6.482;2023-08-21T14:37:10;3.28;;;0.88;;
57217;SDS011;43078;52.972;6.482;2023-08-21T14:39:40;4.07;;;0.90;;
57217;SDS011;43078;52.972;6.482;2023-08-21T14:42:09;2.95;;;0.70;;
57217;SDS011;43078;52.972;6.482;2023-08-21T14:44:35;3.53;;;1.00;;
57217;SDS011;43078;52.972;6.482;2023-08-21T14:47:01;3.58;;;0.77;;
57217;SDS011;43078;52.972;6.482;2023-08-21T14:49:30;3.78;;;0.85;;
57217;SDS011;43078;52.972;6.482;2023-08-21T14:51:56;3.13;;;0.75;;
57217;SDS011;43078;52.972;6.482;2023-08-21T14:54:21;3.40;;;0.80;;
57217;SDS011;43078;52.972;6.482;2023-08-21T14:56:51;3.03;;;0.73;;
57217;SDS011;43078;52.972;6.482;2023-08-21T14:59:16;3.05;;;0.77;;
57217;SDS011;43078;52.972;6.482;2023-08-21T15:01:42;3.53;;;0.80;;
57217;SDS011;43078;52.972;6.482;2023-08-21T15:04:08;4.32;;;0.90;;
57217;SDS011;43078;52.972;6.482;2023-08-21T15:06:34;3.08;;;0.80;;